sensor_id;sensor_type;location;lat;lon;timestamp;P1;durP1;ratioP1;P2;durP2;ratioP2
43509;SDS011;29105;57.764;40.952;2023-04-29T00:01:04;13.25;;;10.05;;
43509;SDS011;29105;57.764;40.952;2023-04-29T00:03:30;13.68;;;9.75;;
43509;SDS011;29105;57.764;40.952;2023-04-29T00:05:57;10.18;;;8.18;;
43509;SDS011;29105;57.764;40.952;2023-04-29T00:08:23;13.88;;;9.65;;
43509;SDS011;29105;57.764;40.952;2023-04-29T00:10:49;14.35;;;9.38;;
43509;SDS011;29105;57.764;40.952;2023-04-29T00:13:15;10.00;;;7.20;;
43509;SDS011;29105;57.764;40.952;2023-04-29T00:15:41;11.38;;;5.18;;
43509;SDS011;29105;57.764;40.952;2023-04-29T00:18:07;4.22;;;3.28;;
43509;SDS011;29105;57.764;40.952;2023-04-29T00:20:33;3.20;;;1.90;;
43509;SDS011;29105;57.764;40.952;2023-04-29T00:22:59;5.85;;;2.45;;
43509;SDS011;29105;57.764;40.952;2023-04-29T00:25:25;5.03;;;2.50;;
43509;SDS011;29105;57.764;40.952;2023-04-29T00:27:51;8.95;;;3.53;;
43509;SDS011;29105;57.764;40.952;2023-04-29T00:30:16;8.07;;;3.13;;
43509;SDS011;29105;57.764;40.952;2023-04-29T00:32:42;6.93;;;2.40;;
43509;SDS011;29105;57.764;40.952;2023-04-29T00:35:09;4.95;;;3.60;;
43509;SDS011;29105;57.764;40.952;2023-04-29T00:37:35;4.45;;;3.08;;
43509;SDS011;29105;57.764;40.952;2023-04-29T00:40:00;12.48;;;4.00;;
43509;SDS011;29105;57.764;40.952;2023-04-29T00:42:28;4.53;;;3.10;;
43509;SDS011;29105;57.764;40.952;2023-04-29T00:44:57;8.30;;;2.95;;
43509;SDS011;29105;57.764;40.952;2023-04-29T00:47:23;6.65;;;2.92;;
43509;SDS011;29105;57.764;40.952;2023-04-29T00:49:48;6.13;;;2.30;;
43509;SDS011;29105;57.764;40.952;2023-04-29T00:52:14;8.68;;;2.55;;
43509;SDS011;29105;57.764;40.952;2023-04-29T00:54:41;3.40;;;1.40;;
43509;SDS011;29105;57.764;40.952;2023-04-29T00:57:06;2.95;;;1.15;;
43509;SDS011;29105;57.764;40.952;2023-04-29T00:59:32;2.65;;;1.48;;
43509;SDS011;29105;57.764;40.952;2023-04-29T01:01:59;3.38;;;1.98;;
43509;SDS011;29105;57.764;40.952;2023-04-29T01:04:26;4.00;;;2.13;;
43509;SDS011;29105;57.764;40.952;2023-04-29T01:14:36;2.88;;;2.17;;
43509;SDS011;29105;57.764;40.952;2023-04-29T01:17:16;2.88;;;2.15;;
43509;SDS011;29105;57.764;40.952;2023-04-29T01:19:43;2.00;;;1.70;;
43509;SDS011;29105;57.764;40.952;2023-04-29T01:22:12;2.38;;;2.05;;
43509;SDS011;29105;57.764;40.952;2023-04-29T01:24:47;4.85;;;2.05;;
43509;SDS011;29105;57.764;40.952;2023-04-29T01:27:23;3.83;;;2.50;;
43509;SDS011;29105;57.764;40.952;2023-04-29T01:32:36;8.85;;;2.72;;
43509;SDS011;29105;57.764;40.952;2023-04-29T01:37:57;3.85;;;1.77;;
43509;SDS011;29105;57.764;40.952;2023-04-29T01:40:42;5.13;;;1.45;;
43509;SDS011;29105;57.764;40.952;2023-04-29T01:43:23;3.10;;;1.50;;
43509;SDS011;29105;57.764;40.952;2023-04-29T01:45:53;2.60;;;1.80;;
43509;SDS011;29105;57.764;40.952;2023-04-29T01:48:20;2.78;;;2.17;;
43509;SDS011;29105;57.764;40.952;2023-04-29T01:50:46;4.22;;;2.47;;
43509;SDS011;29105;57.764;40.952;2023-04-29T01:53:11;6.85;;;3.97;;
43509;SDS011;29105;57.764;40.952;2023-04-29T01:55:37;11.00;;;5.10;;
43509;SDS011;29105;57.764;40.952;2023-04-29T01:58:03;6.97;;;5.28;;
43509;SDS011;29105;57.764;40.952;2023-04-29T02:00:28;10.20;;;4.82;;
43509;SDS011;29105;57.764;40.952;2023-04-29T02:02:54;7.63;;;4.32;;
43509;SDS011;29105;57.764;40.952;2023-04-29T02:05:20;4.18;;;3.28;;
43509;SDS011;29105;57.764;40.952;2023-04-29T02:07:45;2.60;;;2.08;;
43509;SDS011;29105;57.764;40.952;2023-04-29T02:10:12;1.73;;;1.20;;
43509;SDS011;29105;57.764;40.952;2023-04-29T02:12:37;1.35;;;1.20;;
43509;SDS011;29105;57.764;40.952;2023-04-29T02:15:26;1.50;;;1.23;;
43509;SDS011;29105;57.764;40.952;2023-04-29T02:17:52;1.77;;;1.15;;
43509;SDS011;29105;57.764;40.952;2023-04-29T02:20:19;2.17;;;1.13;;
43509;SDS011;29105;57.764;40.952;2023-04-29T02:22:45;9.25;;;0.60;;
43509;SDS011;29105;57.764;40.952;2023-04-29T02:25:10;2.20;;;0.90;;
43509;SDS011;29105;57.764;40.952;2023-04-29T02:27:36;1.95;;;0.70;;
43509;SDS011;29105;57.764;40.952;2023-04-29T02:30:02;2.17;;;0.60;;
43509;SDS011;29105;57.764;40.952;2023-04-29T02:32:29;2.15;;;0.85;;
43509;SDS011;29105;57.764;40.952;2023-04-29T02:34:55;3.45;;;1.10;;
43509;SDS011;29105;57.764;40.952;2023-04-29T02:37:22;1.35;;;0.77;;
43509;SDS011;29105;57.764;40.952;2023-04-29T02:39:47;4.63;;;0.77;;
43509;SDS011;29105;57.764;40.952;2023-04-29T02:42:13;1.58;;;0.50;;
43509;SDS011;29105;57.764;40.952;2023-04-29T02:44:39;2.20;;;0.47;;
43509;SDS011;29105;57.764;40.952;2023-04-29T02:47:05;0.80;;;0.30;;
43509;SDS011;29105;57.764;40.952;2023-04-29T02:49:31;0.80;;;0.30;;
43509;SDS011;29105;57.764;40.952;2023-04-29T02:51:56;1.15;;;0.40;;
43509;SDS011;29105;57.764;40.952;2023-04-29T02:54:22;1.15;;;0.30;;
43509;SDS011;29105;57.764;40.952;2023-04-29T02:56:48;2.90;;;0.40;;
43509;SDS011;29105;57.764;40.952;2023-04-29T02:59:14;1.95;;;0.57;;
43509;SDS011;29105;57.764;40.952;2023-04-29T03:01:39;1.30;;;0.47;;
43509;SDS011;29105;57.764;40.952;2023-04-29T03:04:05;1.13;;;0.60;;
43509;SDS011;29105;57.764;40.952;2023-04-29T03:06:31;0.60;;;0.28;;
43509;SDS011;29105;57.764;40.952;2023-04-29T03:08:57;1.02;;;0.52;;
43509;SDS011;29105;57.764;40.952;2023-04-29T03:11:23;1.60;;;0.47;;
43509;SDS011;29105;57.764;40.952;2023-04-29T03:13:49;0.70;;;0.32;;
43509;SDS011;29105;57.764;40.952;2023-04-29T03:16:15;0.80;;;0.40;;
43509;SDS011;29105;57.764;40.952;2023-04-29T03:18:41;1.17;;;0.45;;
43509;SDS011;29105;57.764;40.952;2023-04-29T03:21:07;1.00;;;0.38;;
43509;SDS011;29105;57.764;40.952;2023-04-29T03:23:33;0.93;;;0.50;;
43509;SDS011;29105;57.764;40.952;2023-04-29T03:25:59;2.47;;;0.60;;
43509;SDS011;29105;57.764;40.952;2023-04-29T03:28:25;1.60;;;0.60;;
43509;SDS011;29105;57.764;40.952;2023-04-29T03:30:51;6.43;;;1.65;;
43509;SDS011;29105;57.764;40.952;2023-04-29T03:33:17;3.03;;;1.83;;
43509;SDS011;29105;57.764;40.952;2023-04-29T03:35:43;1.30;;;1.20;;
43509;SDS011;29105;57.764;40.952;2023-04-29T03:38:10;0.70;;;0.40;;
43509;SDS011;29105;57.764;40.952;2023-04-29T03:40:36;0.98;;;0.35;;
43509;SDS011;29105;57.764;40.952;2023-04-29T03:43:02;0.63;;;0.30;;
43509;SDS011;29105;57.764;40.952;2023-04-29T03:45:28;0.85;;;0.10;;
43509;SDS011;29105;57.764;40.952;2023-04-29T03:47:53;0.63;;;0.10;;
43509;SDS011;29105;57.764;40.952;2023-04-29T03:50:19;0.10;;;0.10;;
43509;SDS011;29105;57.764;40.952;2023-04-29T03:52:45;0.65;;;0.10;;
43509;SDS011;29105;57.764;40.952;2023-04-29T03:55:11;0.90;;;0.20;;
43509;SDS011;29105;57.764;40.952;2023-04-29T03:57:36;1.02;;;0.20;;
43509;SDS011;29105;57.764;40.952;2023-04-29T04:00:02;1.02;;;0.10;;
43509;SDS011;29105;57.764;40.952;2023-04-29T04:02:31;0.63;;;0.10;;
43509;SDS011;29105;57.764;40.952;2023-04-29T04:04:57;1.05;;;0.30;;
43509;SDS011;29105;57.764;40.952;2023-04-29T04:07:23;1.05;;;0.10;;
43509;SDS011;29105;57.764;40.952;2023-04-29T04:09:48;1.23;;;0.10;;
43509;SDS011;29105;57.764;40.952;2023-04-29T04:12:14;4.00;;;0.10;;
43509;SDS011;29105;57.764;40.952;2023-04-29T04:14:40;1.65;;;0.25;;
43509;SDS011;29105;57.764;40.952;2023-04-29T04:17:06;0.15;;;0.10;;
43509;SDS011;29105;57.764;40.952;2023-04-29T04:19:31;0.28;;;0.10;;
43509;SDS011;29105;57.764;40.952;2023-04-29T04:21:57;0.63;;;0.10;;
43509;SDS011;29105;57.764;40.952;2023-04-29T04:24:23;0.75;;;0.10;;
43509;SDS011;29105;57.764;40.952;2023-04-29T04:26:49;1.70;;;0.10;;
43509;SDS011;29105;57.764;40.952;2023-04-29T04:29:15;0.65;;;0.17;;
43509;SDS011;29105;57.764;40.952;2023-04-29T04:31:41;1.17;;;0.20;;
43509;SDS011;29105;57.764;40.952;2023-04-29T04:34:06;1.25;;;0.30;;
43509;SDS011;29105;57.764;40.952;2023-04-29T04:36:32;3.53;;;0.65;;
43509;SDS011;29105;57.764;40.952;2023-04-29T04:38:57;1.42;;;0.13;;
43509;SDS011;29105;57.764;40.952;2023-04-29T04:41:23;1.00;;;0.20;;
43509;SDS011;29105;57.764;40.952;2023-04-29T04:43:49;0.10;;;0.10;;
43509;SDS011;29105;57.764;40.952;2023-04-29T04:46:14;1.05;;;0.20;;
43509;SDS011;29105;57.764;40.952;2023-04-29T04:48:41;1.20;;;0.20;;
43509;SDS011;29105;57.764;40.952;2023-04-29T04:51:10;0.47;;;0.10;;
43509;SDS011;29105;57.764;40.952;2023-04-29T04:53:36;0.60;;;0.20;;
43509;SDS011;29105;57.764;40.952;2023-04-29T04:56:03;0.20;;;0.10;;
43509;SDS011;29105;57.764;40.952;2023-04-29T04:58:29;0.68;;;0.20;;
43509;SDS011;29105;57.764;40.952;2023-04-29T05:00:56;0.30;;;0.13;;
43509;SDS011;29105;57.764;40.952;2023-04-29T05:03:21;0.30;;;0.20;;
43509;SDS011;29105;57.764;40.952;2023-04-29T05:05:57;0.30;;;0.10;;
43509;SDS011;29105;57.764;40.952;2023-04-29T05:08:24;0.13;;;0.10;;
43509;SDS011;29105;57.764;40.952;2023-04-29T05:10:50;0.40;;;0.10;;
43509;SDS011;29105;57.764;40.952;2023-04-29T05:13:16;0.85;;;0.10;;
43509;SDS011;29105;57.764;40.952;2023-04-29T05:15:42;0.75;;;0.20;;
43509;SDS011;29105;57.764;40.952;2023-04-29T05:18:09;4.40;;;3.15;;
43509;SDS011;29105;57.764;40.952;2023-04-29T05:20:35;0.60;;;0.35;;
43509;SDS011;29105;57.764;40.952;2023-04-29T05:23:01;0.20;;;0.10;;
43509;SDS011;29105;57.764;40.952;2023-04-29T05:25:27;1.83;;;0.30;;
43509;SDS011;29105;57.764;40.952;2023-04-29T05:27:53;0.25;;;0.15;;
43509;SDS011;29105;57.764;40.952;2023-04-29T05:30:19;0.40;;;0.10;;
43509;SDS011;29105;57.764;40.952;2023-04-29T05:32:45;1.40;;;0.30;;
43509;SDS011;29105;57.764;40.952;2023-04-29T05:35:11;0.68;;;0.25;;
43509;SDS011;29105;57.764;40.952;2023-04-29T05:37:37;0.55;;;0.20;;
43509;SDS011;29105;57.764;40.952;2023-04-29T05:40:03;0.60;;;0.20;;
43509;SDS011;29105;57.764;40.952;2023-04-29T05:42:29;1.80;;;0.20;;
43509;SDS011;29105;57.764;40.952;2023-04-29T05:44:55;3.25;;;0.20;;
43509;SDS011;29105;57.764;40.952;2023-04-29T05:47:21;0.73;;;0.40;;
43509;SDS011;29105;57.764;40.952;2023-04-29T05:49:47;1.25;;;0.52;;
43509;SDS011;29105;57.764;40.952;2023-04-29T05:52:13;3.17;;;0.70;;
43509;SDS011;29105;57.764;40.952;2023-04-29T05:54:39;1.50;;;0.50;;
43509;SDS011;29105;57.764;40.952;2023-04-29T05:57:05;1.30;;;0.50;;
43509;SDS011;29105;57.764;40.952;2023-04-29T05:59:31;1.83;;;0.40;;
43509;SDS011;29105;57.764;40.952;2023-04-29T06:01:58;2.35;;;0.50;;
43509;SDS011;29105;57.764;40.952;2023-04-29T06:04:24;1.90;;;0.50;;
43509;SDS011;29105;57.764;40.952;2023-04-29T06:06:50;1.17;;;0.50;;
43509;SDS011;29105;57.764;40.952;2023-04-29T06:09:17;1.08;;;0.25;;
43509;SDS011;29105;57.764;40.952;2023-04-29T06:11:45;3.83;;;0.60;;
43509;SDS011;29105;57.764;40.952;2023-04-29T06:14:11;0.95;;;0.45;;
43509;SDS011;29105;57.764;40.952;2023-04-29T06:16:37;1.90;;;0.40;;
43509;SDS011;29105;57.764;40.952;2023-04-29T06:19:04;1.85;;;0.40;;
43509;SDS011;29105;57.764;40.952;2023-04-29T06:21:30;2.30;;;0.60;;
43509;SDS011;29105;57.764;40.952;2023-04-29T06:23:56;2.60;;;0.50;;
43509;SDS011;29105;57.764;40.952;2023-04-29T06:26:22;2.20;;;0.68;;
43509;SDS011;29105;57.764;40.952;2023-04-29T06:28:48;1.67;;;0.60;;
43509;SDS011;29105;57.764;40.952;2023-04-29T06:31:14;2.47;;;0.80;;
43509;SDS011;29105;57.764;40.952;2023-04-29T06:33:40;2.40;;;0.55;;
43509;SDS011;29105;57.764;40.952;2023-04-29T06:36:06;1.92;;;1.02;;
43509;SDS011;29105;57.764;40.952;2023-04-29T06:38:32;2.53;;;0.77;;
43509;SDS011;29105;57.764;40.952;2023-04-29T06:40:57;3.60;;;0.98;;
43509;SDS011;29105;57.764;40.952;2023-04-29T06:43:28;1.52;;;0.90;;
43509;SDS011;29105;57.764;40.952;2023-04-29T06:45:54;2.72;;;0.88;;
43509;SDS011;29105;57.764;40.952;2023-04-29T06:48:19;2.40;;;0.75;;
43509;SDS011;29105;57.764;40.952;2023-04-29T06:50:55;2.22;;;0.73;;
43509;SDS011;29105;57.764;40.952;2023-04-29T06:53:22;1.35;;;0.70;;
43509;SDS011;29105;57.764;40.952;2023-04-29T06:55:48;1.75;;;1.00;;
43509;SDS011;29105;57.764;40.952;2023-04-29T06:58:17;2.47;;;0.95;;
43509;SDS011;29105;57.764;40.952;2023-04-29T07:00:43;1.65;;;0.88;;
43509;SDS011;29105;57.764;40.952;2023-04-29T07:03:10;2.55;;;1.30;;
43509;SDS011;29105;57.764;40.952;2023-04-29T07:05:36;3.38;;;1.10;;
43509;SDS011;29105;57.764;40.952;2023-04-29T07:08:06;1.23;;;0.70;;
43509;SDS011;29105;57.764;40.952;2023-04-29T07:10:33;2.13;;;1.23;;
43509;SDS011;29105;57.764;40.952;2023-04-29T07:12:59;1.85;;;0.90;;
43509;SDS011;29105;57.764;40.952;2023-04-29T07:15:25;1.75;;;1.00;;
43509;SDS011;29105;57.764;40.952;2023-04-29T07:17:51;1.60;;;1.10;;
43509;SDS011;29105;57.764;40.952;2023-04-29T07:20:17;1.95;;;1.27;;
43509;SDS011;29105;57.764;40.952;2023-04-29T07:22:43;2.95;;;1.30;;
43509;SDS011;29105;57.764;40.952;2023-04-29T07:25:09;2.88;;;1.30;;
43509;SDS011;29105;57.764;40.952;2023-04-29T07:27:35;2.33;;;1.20;;
43509;SDS011;29105;57.764;40.952;2023-04-29T07:30:01;2.40;;;1.10;;
43509;SDS011;29105;57.764;40.952;2023-04-29T07:32:30;3.08;;;1.17;;
43509;SDS011;29105;57.764;40.952;2023-04-29T07:34:57;3.08;;;1.40;;
43509;SDS011;29105;57.764;40.952;2023-04-29T07:37:23;3.88;;;1.25;;
43509;SDS011;29105;57.764;40.952;2023-04-29T07:39:49;2.25;;;0.70;;
43509;SDS011;29105;57.764;40.952;2023-04-29T07:42:15;4.78;;;0.40;;
43509;SDS011;29105;57.764;40.952;2023-04-29T07:44:41;4.13;;;1.02;;
43509;SDS011;29105;57.764;40.952;2023-04-29T07:47:06;2.70;;;0.65;;
43509;SDS011;29105;57.764;40.952;2023-04-29T07:49:32;1.60;;;0.98;;
43509;SDS011;29105;57.764;40.952;2023-04-29T07:51:58;3.38;;;0.80;;
43509;SDS011;29105;57.764;40.952;2023-04-29T07:54:24;3.25;;;0.80;;
43509;SDS011;29105;57.764;40.952;2023-04-29T07:56:50;1.00;;;0.50;;
43509;SDS011;29105;57.764;40.952;2023-04-29T07:59:16;0.77;;;0.43;;
43509;SDS011;29105;57.764;40.952;2023-04-29T08:01:41;1.40;;;0.80;;
43509;SDS011;29105;57.764;40.952;2023-04-29T08:04:07;1.67;;;0.40;;
43509;SDS011;29105;57.764;40.952;2023-04-29T08:06:33;1.42;;;0.40;;
43509;SDS011;29105;57.764;40.952;2023-04-29T08:09:00;1.08;;;0.60;;
43509;SDS011;29105;57.764;40.952;2023-04-29T08:11:27;2.10;;;0.95;;
43509;SDS011;29105;57.764;40.952;2023-04-29T08:13:52;1.63;;;0.85;;
43509;SDS011;29105;57.764;40.952;2023-04-29T08:16:21;0.90;;;0.35;;
43509;SDS011;29105;57.764;40.952;2023-04-29T08:18:48;1.50;;;0.50;;
43509;SDS011;29105;57.764;40.952;2023-04-29T08:21:14;1.17;;;0.38;;
43509;SDS011;29105;57.764;40.952;2023-04-29T08:23:40;4.50;;;1.27;;
43509;SDS011;29105;57.764;40.952;2023-04-29T08:26:05;1.73;;;0.40;;
43509;SDS011;29105;57.764;40.952;2023-04-29T08:28:32;4.07;;;0.32;;
43509;SDS011;29105;57.764;40.952;2023-04-29T08:30:57;2.05;;;0.50;;
43509;SDS011;29105;57.764;40.952;2023-04-29T08:33:23;1.10;;;0.30;;
43509;SDS011;29105;57.764;40.952;2023-04-29T08:35:56;0.90;;;0.25;;
43509;SDS011;29105;57.764;40.952;2023-04-29T08:38:23;1.23;;;0.28;;
43509;SDS011;29105;57.764;40.952;2023-04-29T08:40:49;4.20;;;0.63;;
43509;SDS011;29105;57.764;40.952;2023-04-29T08:43:15;2.38;;;0.45;;
43509;SDS011;29105;57.764;40.952;2023-04-29T08:45:41;2.67;;;0.57;;
43509;SDS011;29105;57.764;40.952;2023-04-29T08:48:08;1.27;;;0.28;;
43509;SDS011;29105;57.764;40.952;2023-04-29T08:50:38;0.90;;;0.20;;
43509;SDS011;29105;57.764;40.952;2023-04-29T08:53:05;1.90;;;0.38;;
43509;SDS011;29105;57.764;40.952;2023-04-29T08:55:35;0.55;;;0.22;;
43509;SDS011;29105;57.764;40.952;2023-04-29T08:58:05;2.33;;;0.45;;
43509;SDS011;29105;57.764;40.952;2023-04-29T09:00:31;1.60;;;0.30;;
43509;SDS011;29105;57.764;40.952;2023-04-29T09:02:59;0.95;;;0.30;;
43509;SDS011;29105;57.764;40.952;2023-04-29T09:05:25;0.45;;;0.20;;
43509;SDS011;29105;57.764;40.952;2023-04-29T09:07:52;0.63;;;0.20;;
43509;SDS011;29105;57.764;40.952;2023-04-29T09:10:18;0.52;;;0.38;;
43509;SDS011;29105;57.764;40.952;2023-04-29T09:12:44;0.52;;;0.20;;
43509;SDS011;29105;57.764;40.952;2023-04-29T09:15:11;0.43;;;0.15;;
43509;SDS011;29105;57.764;40.952;2023-04-29T09:17:40;5.60;;;2.75;;
43509;SDS011;29105;57.764;40.952;2023-04-29T09:20:25;0.70;;;0.40;;
43509;SDS011;29105;57.764;40.952;2023-04-29T09:22:56;1.20;;;0.22;;
43509;SDS011;29105;57.764;40.952;2023-04-29T09:25:23;0.70;;;0.60;;
43509;SDS011;29105;57.764;40.952;2023-04-29T09:27:49;0.60;;;0.30;;
43509;SDS011;29105;57.764;40.952;2023-04-29T09:30:14;1.05;;;0.60;;
43509;SDS011;29105;57.764;40.952;2023-04-29T09:32:41;0.52;;;0.22;;
43509;SDS011;29105;57.764;40.952;2023-04-29T09:35:25;1.02;;;0.38;;
43509;SDS011;29105;57.764;40.952;2023-04-29T09:38:07;0.93;;;0.30;;
43509;SDS011;29105;57.764;40.952;2023-04-29T09:40:34;1.23;;;0.20;;
43509;SDS011;29105;57.764;40.952;2023-04-29T09:43:00;4.68;;;1.33;;
43509;SDS011;29105;57.764;40.952;2023-04-29T09:45:33;3.95;;;1.60;;
43509;SDS011;29105;57.764;40.952;2023-04-29T09:48:05;7.75;;;3.35;;
43509;SDS011;29105;57.764;40.952;2023-04-29T09:50:39;6.95;;;2.92;;
43509;SDS011;29105;57.764;40.952;2023-04-29T09:53:07;1.10;;;0.50;;
43509;SDS011;29105;57.764;40.952;2023-04-29T09:55:35;1.35;;;0.70;;
43509;SDS011;29105;57.764;40.952;2023-04-29T09:58:01;1.63;;;0.80;;
43509;SDS011;29105;57.764;40.952;2023-04-29T10:00:31;1.10;;;0.40;;
43509;SDS011;29105;57.764;40.952;2023-04-29T10:02:58;0.45;;;0.30;;
43509;SDS011;29105;57.764;40.952;2023-04-29T10:05:28;12.63;;;1.67;;
43509;SDS011;29105;57.764;40.952;2023-04-29T10:07:55;0.57;;;0.30;;
43509;SDS011;29105;57.764;40.952;2023-04-29T10:10:22;1.17;;;0.50;;
43509;SDS011;29105;57.764;40.952;2023-04-29T10:12:48;1.10;;;0.40;;
43509;SDS011;29105;57.764;40.952;2023-04-29T10:18:16;1.80;;;0.60;;
43509;SDS011;29105;57.764;40.952;2023-04-29T10:20:45;1.20;;;0.38;;
43509;SDS011;29105;57.764;40.952;2023-04-29T10:23:12;2.80;;;1.42;;
43509;SDS011;29105;57.764;40.952;2023-04-29T10:25:39;0.65;;;0.30;;
43509;SDS011;29105;57.764;40.952;2023-04-29T10:28:08;4.03;;;0.65;;
43509;SDS011;29105;57.764;40.952;2023-04-29T10:30:38;2.00;;;0.80;;
43509;SDS011;29105;57.764;40.952;2023-04-29T10:33:07;1.73;;;0.90;;
43509;SDS011;29105;57.764;40.952;2023-04-29T10:35:38;3.08;;;0.68;;
43509;SDS011;29105;57.764;40.952;2023-04-29T10:38:07;3.13;;;1.08;;
43509;SDS011;29105;57.764;40.952;2023-04-29T10:40:39;1.70;;;0.70;;
43509;SDS011;29105;57.764;40.952;2023-04-29T10:43:10;3.75;;;0.63;;
43509;SDS011;29105;57.764;40.952;2023-04-29T10:45:36;6.40;;;2.38;;
43509;SDS011;29105;57.764;40.952;2023-04-29T10:50:32;5.45;;;3.13;;
43509;SDS011;29105;57.764;40.952;2023-04-29T10:53:17;17.13;;;7.72;;
43509;SDS011;29105;57.764;40.952;2023-04-29T10:55:47;43.55;;;20.30;;
43509;SDS011;29105;57.764;40.952;2023-04-29T11:01:03;21.83;;;9.10;;
43509;SDS011;29105;57.764;40.952;2023-04-29T11:03:49;10.90;;;6.50;;
43509;SDS011;29105;57.764;40.952;2023-04-29T11:06:37;4.95;;;2.90;;
43509;SDS011;29105;57.764;40.952;2023-04-29T11:09:11;4.70;;;2.88;;
43509;SDS011;29105;57.764;40.952;2023-04-29T11:11:39;2.63;;;1.95;;
43509;SDS011;29105;57.764;40.952;2023-04-29T11:14:05;2.97;;;1.75;;
43509;SDS011;29105;57.764;40.952;2023-04-29T11:16:34;2.42;;;1.70;;
43509;SDS011;29105;57.764;40.952;2023-04-29T11:19:05;3.03;;;1.80;;
43509;SDS011;29105;57.764;40.952;2023-04-29T11:21:35;2.90;;;1.38;;
43509;SDS011;29105;57.764;40.952;2023-04-29T11:24:02;4.18;;;1.60;;
43509;SDS011;29105;57.764;40.952;2023-04-29T11:26:30;2.03;;;1.33;;
43509;SDS011;29105;57.764;40.952;2023-04-29T11:28:57;2.65;;;1.60;;
43509;SDS011;29105;57.764;40.952;2023-04-29T11:31:29;3.03;;;1.67;;
43509;SDS011;29105;57.764;40.952;2023-04-29T11:33:55;2.67;;;1.27;;
43509;SDS011;29105;57.764;40.952;2023-04-29T11:36:21;1.92;;;0.82;;
43509;SDS011;29105;57.764;40.952;2023-04-29T11:38:47;2.05;;;1.08;;
43509;SDS011;29105;57.764;40.952;2023-04-29T11:41:12;1.08;;;0.52;;
43509;SDS011;29105;57.764;40.952;2023-04-29T11:43:39;2.33;;;1.05;;
43509;SDS011;29105;57.764;40.952;2023-04-29T11:46:12;1.75;;;1.17;;
43509;SDS011;29105;57.764;40.952;2023-04-29T11:48:44;2.65;;;1.55;;
43509;SDS011;29105;57.764;40.952;2023-04-29T11:51:12;3.97;;;1.27;;
43509;SDS011;29105;57.764;40.952;2023-04-29T11:53:38;2.55;;;1.17;;
43509;SDS011;29105;57.764;40.952;2023-04-29T11:56:04;1.85;;;0.93;;
43509;SDS011;29105;57.764;40.952;2023-04-29T11:58:30;3.08;;;0.80;;
43509;SDS011;29105;57.764;40.952;2023-04-29T12:00:57;4.60;;;3.00;;
43509;SDS011;29105;57.764;40.952;2023-04-29T12:03:22;24.15;;;12.27;;
43509;SDS011;29105;57.764;40.952;2023-04-29T12:05:52;8.70;;;4.00;;
43509;SDS011;29105;57.764;40.952;2023-04-29T12:08:19;4.63;;;1.58;;
43509;SDS011;29105;57.764;40.952;2023-04-29T12:10:49;2.15;;;1.67;;
43509;SDS011;29105;57.764;40.952;2023-04-29T12:13:15;4.85;;;3.85;;
43509;SDS011;29105;57.764;40.952;2023-04-29T12:15:42;2.70;;;1.10;;
43509;SDS011;29105;57.764;40.952;2023-04-29T12:18:10;2.17;;;0.70;;
43509;SDS011;29105;57.764;40.952;2023-04-29T12:20:36;2.22;;;1.70;;
43509;SDS011;29105;57.764;40.952;2023-04-29T12:23:13;3.33;;;1.60;;
43509;SDS011;29105;57.764;40.952;2023-04-29T12:25:39;2.28;;;1.48;;
43509;SDS011;29105;57.764;40.952;2023-04-29T12:28:11;3.25;;;1.77;;
43509;SDS011;29105;57.764;40.952;2023-04-29T12:30:37;4.78;;;2.30;;
43509;SDS011;29105;57.764;40.952;2023-04-29T12:33:03;3.15;;;1.10;;
43509;SDS011;29105;57.764;40.952;2023-04-29T12:35:29;2.65;;;1.75;;
43509;SDS011;29105;57.764;40.952;2023-04-29T12:37:57;1.05;;;0.60;;
43509;SDS011;29105;57.764;40.952;2023-04-29T12:40:23;1.42;;;0.70;;
43509;SDS011;29105;57.764;40.952;2023-04-29T12:42:49;1.77;;;0.35;;
43509;SDS011;29105;57.764;40.952;2023-04-29T12:45:38;0.60;;;0.30;;
43509;SDS011;29105;57.764;40.952;2023-04-29T12:48:03;1.23;;;0.60;;
43509;SDS011;29105;57.764;40.952;2023-04-29T12:50:30;2.45;;;0.70;;
43509;SDS011;29105;57.764;40.952;2023-04-29T12:52:57;1.70;;;0.57;;
43509;SDS011;29105;57.764;40.952;2023-04-29T12:55:23;0.68;;;0.32;;
43509;SDS011;29105;57.764;40.952;2023-04-29T12:57:49;2.92;;;0.73;;
43509;SDS011;29105;57.764;40.952;2023-04-29T13:00:15;3.70;;;0.60;;
43509;SDS011;29105;57.764;40.952;2023-04-29T13:02:40;2.25;;;1.10;;
43509;SDS011;29105;57.764;40.952;2023-04-29T13:05:06;3.20;;;0.75;;
43509;SDS011;29105;57.764;40.952;2023-04-29T13:07:32;2.45;;;0.80;;
43509;SDS011;29105;57.764;40.952;2023-04-29T13:09:58;3.65;;;1.27;;
43509;SDS011;29105;57.764;40.952;2023-04-29T13:12:23;3.30;;;0.85;;
43509;SDS011;29105;57.764;40.952;2023-04-29T13:14:50;1.77;;;0.93;;
43509;SDS011;29105;57.764;40.952;2023-04-29T13:17:15;2.80;;;0.80;;
43509;SDS011;29105;57.764;40.952;2023-04-29T13:19:41;5.03;;;2.60;;
43509;SDS011;29105;57.764;40.952;2023-04-29T13:22:08;4.97;;;2.72;;
43509;SDS011;29105;57.764;40.952;2023-04-29T13:24:34;9.55;;;4.53;;
43509;SDS011;29105;57.764;40.952;2023-04-29T13:27:01;1.88;;;0.93;;
43509;SDS011;29105;57.764;40.952;2023-04-29T13:29:28;3.08;;;1.42;;
43509;SDS011;29105;57.764;40.952;2023-04-29T13:31:53;1.65;;;0.50;;
43509;SDS011;29105;57.764;40.952;2023-04-29T13:34:20;2.10;;;1.30;;
43509;SDS011;29105;57.764;40.952;2023-04-29T13:36:45;1.48;;;0.57;;
43509;SDS011;29105;57.764;40.952;2023-04-29T13:39:11;1.17;;;0.55;;
43509;SDS011;29105;57.764;40.952;2023-04-29T13:41:37;1.30;;;0.45;;
43509;SDS011;29105;57.764;40.952;2023-04-29T13:44:03;2.95;;;0.50;;
43509;SDS011;29105;57.764;40.952;2023-04-29T13:46:29;1.48;;;0.77;;
43509;SDS011;29105;57.764;40.952;2023-04-29T13:48:56;2.03;;;0.40;;
43509;SDS011;29105;57.764;40.952;2023-04-29T13:51:22;2.88;;;0.95;;
43509;SDS011;29105;57.764;40.952;2023-04-29T13:53:48;0.80;;;0.50;;
43509;SDS011;29105;57.764;40.952;2023-04-29T13:56:14;2.10;;;0.38;;
43509;SDS011;29105;57.764;40.952;2023-04-29T13:58:40;2.78;;;0.55;;
43509;SDS011;29105;57.764;40.952;2023-04-29T14:01:06;1.98;;;0.70;;
43509;SDS011;29105;57.764;40.952;2023-04-29T14:03:32;2.40;;;0.93;;
43509;SDS011;29105;57.764;40.952;2023-04-29T14:05:58;1.42;;;0.80;;
43509;SDS011;29105;57.764;40.952;2023-04-29T14:08:24;1.52;;;0.60;;
43509;SDS011;29105;57.764;40.952;2023-04-29T14:10:49;8.93;;;1.13;;
43509;SDS011;29105;57.764;40.952;2023-04-29T14:13:15;4.13;;;0.57;;
43509;SDS011;29105;57.764;40.952;2023-04-29T14:15:42;3.78;;;0.75;;
43509;SDS011;29105;57.764;40.952;2023-04-29T14:18:08;4.72;;;1.77;;
43509;SDS011;29105;57.764;40.952;2023-04-29T14:20:34;6.47;;;2.35;;
43509;SDS011;29105;57.764;40.952;2023-04-29T14:23:00;5.28;;;2.92;;
43509;SDS011;29105;57.764;40.952;2023-04-29T14:25:26;2.70;;;1.00;;
43509;SDS011;29105;57.764;40.952;2023-04-29T14:27:52;4.38;;;1.83;;
43509;SDS011;29105;57.764;40.952;2023-04-29T14:30:17;6.45;;;1.90;;
43509;SDS011;29105;57.764;40.952;2023-04-29T14:32:43;4.88;;;1.88;;
43509;SDS011;29105;57.764;40.952;2023-04-29T14:35:09;5.80;;;0.93;;
43509;SDS011;29105;57.764;40.952;2023-04-29T14:37:34;5.22;;;1.40;;
43509;SDS011;29105;57.764;40.952;2023-04-29T14:40:00;5.85;;;1.17;;
43509;SDS011;29105;57.764;40.952;2023-04-29T14:42:26;3.33;;;0.90;;
43509;SDS011;29105;57.764;40.952;2023-04-29T14:44:51;2.63;;;0.93;;
43509;SDS011;29105;57.764;40.952;2023-04-29T14:47:18;7.03;;;0.65;;
43509;SDS011;29105;57.764;40.952;2023-04-29T14:49:44;4.38;;;0.50;;
43509;SDS011;29105;57.764;40.952;2023-04-29T14:52:10;1.17;;;0.40;;
43509;SDS011;29105;57.764;40.952;2023-04-29T14:54:35;3.17;;;0.55;;